aviador You're here:

KHXD Decoded Metar

HILTON HEAD in SC, USA
Report Time2018-06-17 20:50:00
UTC Time2018-06-17 21:50:53
Flight Rules vfr VFR
Wind200° at 04 kt
W.Decomp.*RWY 21: 4.0 kt HW 0.2 kt LCW
W.Rank200° ranks 8
Current wind is below 200° avg. (6.3)
Visibility9999 m
Phenomena:N/A
Clouds:N/A
Expected CloudBase > 1,600 ft AGL from Temp-Dew spread
CeilingNone
Temp29°C (ISA +14)
Dew Point25°C (79% RH)
Heat Index34.5°C
QNH1020 hPa
Density Alt1,811 ft
Elevation20 ft
Report Wrong Elevation
Raw Report
METAR KHXD 172050Z 20004KT 10SM SKC 29/25 A3012 RMK LTG DSNT SW AND
W=

Extra information for KHXD:More info

Metar Taf Metar & Taf Last 4 Metars F.Rules Stats Wind Profile Meteogram Temp Stats Airport Information Weather charts Add Link Nearby VenuesMetar ALERT Operation Metar Decoded Social comments

AIRNAV info for KHXD